sensor_id;sensor_type;location;lat;lon;timestamp;temperature;humidity
51908;DHT22;39320;53.214;6.556;2022-08-21T00:01:27;19.60;99.90
51908;DHT22;39320;53.214;6.556;2022-08-21T00:03:55;19.60;99.90
51908;DHT22;39320;53.214;6.556;2022-08-21T00:06:21;19.60;99.90
51908;DHT22;39320;53.214;6.556;2022-08-21T00:08:52;19.50;99.90
51908;DHT22;39320;53.214;6.556;2022-08-21T00:11:18;19.50;99.90
51908;DHT22;39320;53.214;6.556;2022-08-21T00:13:44;19.50;99.90
51908;DHT22;39320;53.214;6.556;2022-08-21T00:16:10;19.50;99.90
51908;DHT22;39320;53.214;6.556;2022-08-21T00:18:36;19.50;99.90
51908;DHT22;39320;53.214;6.556;2022-08-21T00:21:03;19.50;99.90
51908;DHT22;39320;53.214;6.556;2022-08-21T00:23:29;19.40;99.90
51908;DHT22;39320;53.214;6.556;2022-08-21T00:25:55;19.30;99.90
51908;DHT22;39320;53.214;6.556;2022-08-21T00:28:21;19.30;99.90
51908;DHT22;39320;53.214;6.556;2022-08-21T00:30:47;19.30;99.90
51908;DHT22;39320;53.214;6.556;2022-08-21T00:33:13;19.30;99.90
51908;DHT22;39320;53.214;6.556;2022-08-21T00:35:42;19.30;99.90
51908;DHT22;39320;53.214;6.556;2022-08-21T00:38:09;19.30;99.90
51908;DHT22;39320;53.214;6.556;2022-08-21T00:40:40;19.40;99.90
51908;DHT22;39320;53.214;6.556;2022-08-21T00:43:10;19.40;99.90
51908;DHT22;39320;53.214;6.556;2022-08-21T00:45:36;19.40;99.90
51908;DHT22;39320;53.214;6.556;2022-08-21T00:48:02;19.40;99.90
51908;DHT22;39320;53.214;6.556;2022-08-21T00:50:32;19.40;99.90
51908;DHT22;39320;53.214;6.556;2022-08-21T00:53:00;19.40;99.90
51908;DHT22;39320;53.214;6.556;2022-08-21T00:55:27;19.40;99.90
51908;DHT22;39320;53.214;6.556;2022-08-21T00:57:55;19.40;99.90
51908;DHT22;39320;53.214;6.556;2022-08-21T01:00:31;19.40;99.90
51908;DHT22;39320;53.214;6.556;2022-08-21T01:02:58;19.50;99.90
51908;DHT22;39320;53.214;6.556;2022-08-21T01:05:25;19.40;99.90
51908;DHT22;39320;53.214;6.556;2022-08-21T01:07:50;19.30;99.90
51908;DHT22;39320;53.214;6.556;2022-08-21T01:10:17;19.30;99.90
51908;DHT22;39320;53.214;6.556;2022-08-21T01:12:44;19.30;99.90
51908;DHT22;39320;53.214;6.556;2022-08-21T01:15:10;19.30;99.90
51908;DHT22;39320;53.214;6.556;2022-08-21T01:17:37;19.30;99.90
51908;DHT22;39320;53.214;6.556;2022-08-21T01:20:07;19.30;99.90
51908;DHT22;39320;53.214;6.556;2022-08-21T01:22:33;19.30;99.90
51908;DHT22;39320;53.214;6.556;2022-08-21T01:24:59;19.30;99.90
51908;DHT22;39320;53.214;6.556;2022-08-21T01:27:25;19.30;99.90
51908;DHT22;39320;53.214;6.556;2022-08-21T01:29:57;19.30;99.90
51908;DHT22;39320;53.214;6.556;2022-08-21T01:32:24;19.30;99.90
51908;DHT22;39320;53.214;6.556;2022-08-21T01:34:51;19.30;99.90
51908;DHT22;39320;53.214;6.556;2022-08-21T01:37:19;19.20;99.90
51908;DHT22;39320;53.214;6.556;2022-08-21T01:39:45;19.20;99.90
51908;DHT22;39320;53.214;6.556;2022-08-21T01:42:12;19.10;99.90
51908;DHT22;39320;53.214;6.556;2022-08-21T01:44:38;19.20;99.90
51908;DHT22;39320;53.214;6.556;2022-08-21T01:47:06;19.10;99.90
51908;DHT22;39320;53.214;6.556;2022-08-21T01:49:33;19.10;99.90
51908;DHT22;39320;53.214;6.556;2022-08-21T01:52:00;19.10;99.90
51908;DHT22;39320;53.214;6.556;2022-08-21T01:54:27;19.00;99.90
51908;DHT22;39320;53.214;6.556;2022-08-21T01:56:53;19.00;99.90
51908;DHT22;39320;53.214;6.556;2022-08-21T01:59:22;19.00;99.90
51908;DHT22;39320;53.214;6.556;2022-08-21T02:01:48;19.00;99.90
51908;DHT22;39320;53.214;6.556;2022-08-21T02:04:14;19.00;99.90
51908;DHT22;39320;53.214;6.556;2022-08-21T02:06:41;19.00;99.90
51908;DHT22;39320;53.214;6.556;2022-08-21T02:09:09;19.00;99.90
51908;DHT22;39320;53.214;6.556;2022-08-21T02:11:36;19.00;99.90
51908;DHT22;39320;53.214;6.556;2022-08-21T02:14:02;18.90;99.90
51908;DHT22;39320;53.214;6.556;2022-08-21T02:16:28;18.90;99.90
51908;DHT22;39320;53.214;6.556;2022-08-21T02:18:54;18.90;99.90
51908;DHT22;39320;53.214;6.556;2022-08-21T02:21:19;18.80;99.90
51908;DHT22;39320;53.214;6.556;2022-08-21T02:23:45;18.80;99.90
51908;DHT22;39320;53.214;6.556;2022-08-21T02:26:11;18.80;99.90
51908;DHT22;39320;53.214;6.556;2022-08-21T02:28:37;18.80;99.90
51908;DHT22;39320;53.214;6.556;2022-08-21T02:31:04;18.70;99.90
51908;DHT22;39320;53.214;6.556;2022-08-21T02:33:30;18.70;99.90
51908;DHT22;39320;53.214;6.556;2022-08-21T02:35:56;18.70;99.90
51908;DHT22;39320;53.214;6.556;2022-08-21T02:38:28;18.70;99.90
51908;DHT22;39320;53.214;6.556;2022-08-21T02:40:55;18.80;99.90
51908;DHT22;39320;53.214;6.556;2022-08-21T02:43:23;18.70;99.90
51908;DHT22;39320;53.214;6.556;2022-08-21T02:45:50;18.70;99.90
51908;DHT22;39320;53.214;6.556;2022-08-21T02:48:20;18.70;99.90
51908;DHT22;39320;53.214;6.556;2022-08-21T02:50:51;18.70;99.90
51908;DHT22;39320;53.214;6.556;2022-08-21T02:53:18;18.60;99.90
51908;DHT22;39320;53.214;6.556;2022-08-21T02:55:46;18.60;99.90
51908;DHT22;39320;53.214;6.556;2022-08-21T02:58:14;18.60;99.90
51908;DHT22;39320;53.214;6.556;2022-08-21T03:00:41;18.50;99.90
51908;DHT22;39320;53.214;6.556;2022-08-21T03:03:07;18.50;99.90
51908;DHT22;39320;53.214;6.556;2022-08-21T03:05:35;18.50;99.90
51908;DHT22;39320;53.214;6.556;2022-08-21T03:08:04;18.50;99.90
51908;DHT22;39320;53.214;6.556;2022-08-21T03:10:32;18.40;99.90
51908;DHT22;39320;53.214;6.556;2022-08-21T03:12:57;18.40;99.90
51908;DHT22;39320;53.214;6.556;2022-08-21T03:15:23;18.50;99.90
51908;DHT22;39320;53.214;6.556;2022-08-21T03:17:50;18.40;99.90
51908;DHT22;39320;53.214;6.556;2022-08-21T03:20:18;18.30;99.90
51908;DHT22;39320;53.214;6.556;2022-08-21T03:22:44;18.30;99.90
51908;DHT22;39320;53.214;6.556;2022-08-21T03:25:10;18.20;99.90
51908;DHT22;39320;53.214;6.556;2022-08-21T03:27:36;18.10;99.90
51908;DHT22;39320;53.214;6.556;2022-08-21T03:30:04;18.20;99.90
51908;DHT22;39320;53.214;6.556;2022-08-21T03:32:30;18.10;99.90
51908;DHT22;39320;53.214;6.556;2022-08-21T03:34:57;18.10;99.90
51908;DHT22;39320;53.214;6.556;2022-08-21T03:37:23;18.10;99.90
51908;DHT22;39320;53.214;6.556;2022-08-21T03:39:50;18.10;99.90
51908;DHT22;39320;53.214;6.556;2022-08-21T03:42:16;18.00;99.90
51908;DHT22;39320;53.214;6.556;2022-08-21T03:44:42;18.00;99.90
51908;DHT22;39320;53.214;6.556;2022-08-21T03:47:08;18.00;99.90
51908;DHT22;39320;53.214;6.556;2022-08-21T03:49:35;18.00;99.90
51908;DHT22;39320;53.214;6.556;2022-08-21T03:52:01;18.00;99.90
51908;DHT22;39320;53.214;6.556;2022-08-21T03:54:26;18.00;99.90
51908;DHT22;39320;53.214;6.556;2022-08-21T03:56:52;18.10;99.90
51908;DHT22;39320;53.214;6.556;2022-08-21T03:59:18;18.00;99.90
51908;DHT22;39320;53.214;6.556;2022-08-21T04:01:56;18.00;99.90
51908;DHT22;39320;53.214;6.556;2022-08-21T04:04:24;18.00;99.90
51908;DHT22;39320;53.214;6.556;2022-08-21T04:06:51;18.00;99.90
51908;DHT22;39320;53.214;6.556;2022-08-21T04:09:19;17.90;99.90
51908;DHT22;39320;53.214;6.556;2022-08-21T04:11:45;18.00;99.90
51908;DHT22;39320;53.214;6.556;2022-08-21T04:14:12;17.90;99.90
51908;DHT22;39320;53.214;6.556;2022-08-21T04:16:40;18.00;99.90
51908;DHT22;39320;53.214;6.556;2022-08-21T04:19:07;17.90;99.90
51908;DHT22;39320;53.214;6.556;2022-08-21T04:21:33;17.90;99.90
51908;DHT22;39320;53.214;6.556;2022-08-21T04:23:59;17.90;99.90
51908;DHT22;39320;53.214;6.556;2022-08-21T04:26:25;18.00;99.90
51908;DHT22;39320;53.214;6.556;2022-08-21T04:28:51;18.00;99.90
51908;DHT22;39320;53.214;6.556;2022-08-21T04:31:18;17.90;99.90
51908;DHT22;39320;53.214;6.556;2022-08-21T04:33:44;17.90;99.90
51908;DHT22;39320;53.214;6.556;2022-08-21T04:36:10;17.90;99.90
51908;DHT22;39320;53.214;6.556;2022-08-21T04:38:36;17.80;99.90
51908;DHT22;39320;53.214;6.556;2022-08-21T04:41:02;17.80;99.90
51908;DHT22;39320;53.214;6.556;2022-08-21T04:43:29;17.80;99.90
51908;DHT22;39320;53.214;6.556;2022-08-21T04:45:55;17.80;99.90
51908;DHT22;39320;53.214;6.556;2022-08-21T04:48:22;17.80;99.90
51908;DHT22;39320;53.214;6.556;2022-08-21T04:53:36;17.80;99.90
51908;DHT22;39320;53.214;6.556;2022-08-21T04:56:12;17.80;99.90
51908;DHT22;39320;53.214;6.556;2022-08-21T04:58:38;17.80;99.90
51908;DHT22;39320;53.214;6.556;2022-08-21T05:01:07;17.70;99.90
51908;DHT22;39320;53.214;6.556;2022-08-21T05:03:34;17.70;99.90
51908;DHT22;39320;53.214;6.556;2022-08-21T05:06:04;17.80;99.90
51908;DHT22;39320;53.214;6.556;2022-08-21T05:08:31;17.80;99.90
51908;DHT22;39320;53.214;6.556;2022-08-21T05:10:57;17.70;99.90
51908;DHT22;39320;53.214;6.556;2022-08-21T05:13:24;17.80;99.90
51908;DHT22;39320;53.214;6.556;2022-08-21T05:15:49;17.70;99.90
51908;DHT22;39320;53.214;6.556;2022-08-21T05:18:15;17.70;99.90
51908;DHT22;39320;53.214;6.556;2022-08-21T05:20:41;17.70;99.90
51908;DHT22;39320;53.214;6.556;2022-08-21T05:23:13;17.70;99.90
51908;DHT22;39320;53.214;6.556;2022-08-21T05:25:40;17.70;99.90
51908;DHT22;39320;53.214;6.556;2022-08-21T05:28:06;17.70;99.90
51908;DHT22;39320;53.214;6.556;2022-08-21T05:30:33;17.70;99.90
51908;DHT22;39320;53.214;6.556;2022-08-21T05:33:01;17.70;99.90
51908;DHT22;39320;53.214;6.556;2022-08-21T05:35:28;17.70;99.90
51908;DHT22;39320;53.214;6.556;2022-08-21T05:37:54;17.80;99.90
51908;DHT22;39320;53.214;6.556;2022-08-21T05:40:20;17.80;99.90
51908;DHT22;39320;53.214;6.556;2022-08-21T05:42:46;17.80;99.90
51908;DHT22;39320;53.214;6.556;2022-08-21T05:45:12;17.80;99.90
51908;DHT22;39320;53.214;6.556;2022-08-21T05:47:37;17.80;99.90
51908;DHT22;39320;53.214;6.556;2022-08-21T05:50:04;17.80;99.90
51908;DHT22;39320;53.214;6.556;2022-08-21T05:52:30;17.80;99.90
51908;DHT22;39320;53.214;6.556;2022-08-21T05:54:55;17.90;99.90
51908;DHT22;39320;53.214;6.556;2022-08-21T05:57:22;17.90;99.90
51908;DHT22;39320;53.214;6.556;2022-08-21T05:59:49;17.90;99.90
51908;DHT22;39320;53.214;6.556;2022-08-21T06:02:17;17.90;99.90
51908;DHT22;39320;53.214;6.556;2022-08-21T06:04:43;17.90;99.90
51908;DHT22;39320;53.214;6.556;2022-08-21T06:07:09;17.90;99.90
51908;DHT22;39320;53.214;6.556;2022-08-21T06:09:36;18.00;99.90
51908;DHT22;39320;53.214;6.556;2022-08-21T06:12:13;17.90;99.90
51908;DHT22;39320;53.214;6.556;2022-08-21T06:14:40;17.90;99.90
51908;DHT22;39320;53.214;6.556;2022-08-21T06:17:08;18.00;99.90
51908;DHT22;39320;53.214;6.556;2022-08-21T06:19:35;18.00;99.90
51908;DHT22;39320;53.214;6.556;2022-08-21T06:22:01;18.10;99.90
51908;DHT22;39320;53.214;6.556;2022-08-21T06:24:27;18.10;99.90
51908;DHT22;39320;53.214;6.556;2022-08-21T06:26:53;18.10;99.90
51908;DHT22;39320;53.214;6.556;2022-08-21T06:29:20;18.20;99.90
51908;DHT22;39320;53.214;6.556;2022-08-21T06:31:47;18.10;99.90
51908;DHT22;39320;53.214;6.556;2022-08-21T06:34:13;18.10;99.90
51908;DHT22;39320;53.214;6.556;2022-08-21T06:36:39;18.20;99.90
51908;DHT22;39320;53.214;6.556;2022-08-21T06:39:05;18.20;99.90
51908;DHT22;39320;53.214;6.556;2022-08-21T06:41:31;18.30;99.90
51908;DHT22;39320;53.214;6.556;2022-08-21T06:43:57;18.30;99.90
51908;DHT22;39320;53.214;6.556;2022-08-21T06:46:25;18.40;99.90
51908;DHT22;39320;53.214;6.556;2022-08-21T06:48:51;18.40;99.90
51908;DHT22;39320;53.214;6.556;2022-08-21T06:51:17;18.40;99.90
51908;DHT22;39320;53.214;6.556;2022-08-21T06:53:43;18.40;99.90
51908;DHT22;39320;53.214;6.556;2022-08-21T06:56:09;18.40;99.90
51908;DHT22;39320;53.214;6.556;2022-08-21T06:58:34;18.50;99.90
51908;DHT22;39320;53.214;6.556;2022-08-21T07:01:00;18.50;99.90
51908;DHT22;39320;53.214;6.556;2022-08-21T07:03:29;18.60;99.90
51908;DHT22;39320;53.214;6.556;2022-08-21T07:05:55;18.70;99.90
51908;DHT22;39320;53.214;6.556;2022-08-21T07:08:24;18.80;99.90
51908;DHT22;39320;53.214;6.556;2022-08-21T07:10:51;18.80;99.90
51908;DHT22;39320;53.214;6.556;2022-08-21T07:13:17;18.90;99.90
51908;DHT22;39320;53.214;6.556;2022-08-21T07:15:44;19.00;99.90
51908;DHT22;39320;53.214;6.556;2022-08-21T07:18:10;19.10;99.90
51908;DHT22;39320;53.214;6.556;2022-08-21T07:20:37;19.20;99.90
51908;DHT22;39320;53.214;6.556;2022-08-21T07:23:06;19.20;99.90
51908;DHT22;39320;53.214;6.556;2022-08-21T07:25:33;19.30;99.90
51908;DHT22;39320;53.214;6.556;2022-08-21T07:27:58;19.30;99.90
51908;DHT22;39320;53.214;6.556;2022-08-21T07:30:24;19.40;99.90
51908;DHT22;39320;53.214;6.556;2022-08-21T07:32:50;19.40;99.90
51908;DHT22;39320;53.214;6.556;2022-08-21T07:35:18;19.50;99.90
51908;DHT22;39320;53.214;6.556;2022-08-21T07:37:44;19.50;99.90
51908;DHT22;39320;53.214;6.556;2022-08-21T07:40:10;19.50;99.90
51908;DHT22;39320;53.214;6.556;2022-08-21T07:42:41;19.60;99.90
51908;DHT22;39320;53.214;6.556;2022-08-21T07:45:07;19.60;99.90
51908;DHT22;39320;53.214;6.556;2022-08-21T07:47:33;19.70;99.90
51908;DHT22;39320;53.214;6.556;2022-08-21T07:49:58;19.70;99.90
51908;DHT22;39320;53.214;6.556;2022-08-21T07:52:24;19.70;99.90
51908;DHT22;39320;53.214;6.556;2022-08-21T07:54:50;19.80;99.90
51908;DHT22;39320;53.214;6.556;2022-08-21T07:57:16;19.80;99.90
51908;DHT22;39320;53.214;6.556;2022-08-21T07:59:42;19.80;99.90
51908;DHT22;39320;53.214;6.556;2022-08-21T08:02:07;19.80;99.90
51908;DHT22;39320;53.214;6.556;2022-08-21T08:04:33;19.90;99.90
51908;DHT22;39320;53.214;6.556;2022-08-21T08:06:59;19.90;99.90
51908;DHT22;39320;53.214;6.556;2022-08-21T08:09:24;20.00;99.90
51908;DHT22;39320;53.214;6.556;2022-08-21T08:11:50;20.00;99.90
51908;DHT22;39320;53.214;6.556;2022-08-21T08:14:16;20.00;99.90
51908;DHT22;39320;53.214;6.556;2022-08-21T08:16:42;20.10;99.90
51908;DHT22;39320;53.214;6.556;2022-08-21T08:19:08;20.10;99.90
51908;DHT22;39320;53.214;6.556;2022-08-21T08:21:34;20.10;99.90
51908;DHT22;39320;53.214;6.556;2022-08-21T08:24:01;20.10;99.90
51908;DHT22;39320;53.214;6.556;2022-08-21T08:26:26;20.10;99.90
51908;DHT22;39320;53.214;6.556;2022-08-21T08:28:52;20.10;99.90
51908;DHT22;39320;53.214;6.556;2022-08-21T08:31:19;20.20;99.90
51908;DHT22;39320;53.214;6.556;2022-08-21T08:33:44;20.20;99.90
51908;DHT22;39320;53.214;6.556;2022-08-21T08:36:15;20.20;99.90
51908;DHT22;39320;53.214;6.556;2022-08-21T08:38:41;20.20;99.90
51908;DHT22;39320;53.214;6.556;2022-08-21T08:43:39;20.20;99.90
51908;DHT22;39320;53.214;6.556;2022-08-21T08:46:15;20.20;99.90
51908;DHT22;39320;53.214;6.556;2022-08-21T08:48:49;20.30;99.90
51908;DHT22;39320;53.214;6.556;2022-08-21T08:51:25;20.30;99.90
51908;DHT22;39320;53.214;6.556;2022-08-21T08:53:57;20.30;99.90
51908;DHT22;39320;53.214;6.556;2022-08-21T08:56:29;20.30;99.90
51908;DHT22;39320;53.214;6.556;2022-08-21T08:59:03;20.30;99.90
51908;DHT22;39320;53.214;6.556;2022-08-21T09:01:32;20.30;99.90
51908;DHT22;39320;53.214;6.556;2022-08-21T09:03:58;20.30;99.90
51908;DHT22;39320;53.214;6.556;2022-08-21T09:15:13;20.40;99.90
51908;DHT22;39320;53.214;6.556;2022-08-21T09:26:25;20.50;99.90
51908;DHT22;39320;53.214;6.556;2022-08-21T09:28:56;20.50;99.90
51908;DHT22;39320;53.214;6.556;2022-08-21T09:31:26;20.60;99.90
51908;DHT22;39320;53.214;6.556;2022-08-21T09:34:06;20.60;99.90
51908;DHT22;39320;53.214;6.556;2022-08-21T09:36:41;20.50;99.90
51908;DHT22;39320;53.214;6.556;2022-08-21T09:39:10;20.60;99.90
51908;DHT22;39320;53.214;6.556;2022-08-21T09:41:36;20.60;99.90
51908;DHT22;39320;53.214;6.556;2022-08-21T09:44:05;20.70;99.90
51908;DHT22;39320;53.214;6.556;2022-08-21T09:46:31;20.70;99.90
51908;DHT22;39320;53.214;6.556;2022-08-21T09:49:02;20.70;99.90
51908;DHT22;39320;53.214;6.556;2022-08-21T09:51:32;20.80;99.90
51908;DHT22;39320;53.214;6.556;2022-08-21T09:56:50;20.80;99.90
51908;DHT22;39320;53.214;6.556;2022-08-21T09:59:35;20.70;99.90
51908;DHT22;39320;53.214;6.556;2022-08-21T10:02:29;20.70;99.90
51908;DHT22;39320;53.214;6.556;2022-08-21T10:05:03;20.80;99.90
51908;DHT22;39320;53.214;6.556;2022-08-21T10:07:31;20.80;99.90
51908;DHT22;39320;53.214;6.556;2022-08-21T10:10:19;20.80;99.90
51908;DHT22;39320;53.214;6.556;2022-08-21T10:21:00;21.00;99.90
51908;DHT22;39320;53.214;6.556;2022-08-21T10:26:57;21.10;99.90
51908;DHT22;39320;53.214;6.556;2022-08-21T10:35:36;21.20;99.90
51908;DHT22;39320;53.214;6.556;2022-08-21T10:46:47;21.20;99.90
51908;DHT22;39320;53.214;6.556;2022-08-21T10:54:52;21.20;99.90
51908;DHT22;39320;53.214;6.556;2022-08-21T10:57:37;21.20;99.90
51908;DHT22;39320;53.214;6.556;2022-08-21T11:00:15;21.10;99.90
51908;DHT22;39320;53.214;6.556;2022-08-21T11:03:02;21.10;99.90
51908;DHT22;39320;53.214;6.556;2022-08-21T11:05:48;21.00;99.90
51908;DHT22;39320;53.214;6.556;2022-08-21T11:08:41;21.00;99.90
51908;DHT22;39320;53.214;6.556;2022-08-21T11:11:10;21.00;99.90
51908;DHT22;39320;53.214;6.556;2022-08-21T11:13:47;21.00;99.90
51908;DHT22;39320;53.214;6.556;2022-08-21T11:16:23;21.00;99.90
51908;DHT22;39320;53.214;6.556;2022-08-21T11:19:02;21.00;99.90
51908;DHT22;39320;53.214;6.556;2022-08-21T11:21:53;21.00;99.90
51908;DHT22;39320;53.214;6.556;2022-08-21T11:24:29;21.20;99.90
51908;DHT22;39320;53.214;6.556;2022-08-21T11:27:06;21.20;99.90
51908;DHT22;39320;53.214;6.556;2022-08-21T11:29:39;21.30;99.90
51908;DHT22;39320;53.214;6.556;2022-08-21T11:40:53;21.60;99.90
51908;DHT22;39320;53.214;6.556;2022-08-21T11:43:42;21.70;99.90
51908;DHT22;39320;53.214;6.556;2022-08-21T11:46:14;21.80;99.90
51908;DHT22;39320;53.214;6.556;2022-08-21T11:51:36;21.80;99.90
51908;DHT22;39320;53.214;6.556;2022-08-21T11:54:17;21.90;99.90
51908;DHT22;39320;53.214;6.556;2022-08-21T11:56:51;21.90;99.90
51908;DHT22;39320;53.214;6.556;2022-08-21T11:59:32;21.90;99.90
51908;DHT22;39320;53.214;6.556;2022-08-21T12:02:00;21.90;99.90
51908;DHT22;39320;53.214;6.556;2022-08-21T12:04:31;22.00;99.90
51908;DHT22;39320;53.214;6.556;2022-08-21T12:07:11;21.90;99.90
51908;DHT22;39320;53.214;6.556;2022-08-21T12:09:37;22.00;99.90
51908;DHT22;39320;53.214;6.556;2022-08-21T12:12:13;22.00;99.90
51908;DHT22;39320;53.214;6.556;2022-08-21T12:14:49;22.10;99.90
51908;DHT22;39320;53.214;6.556;2022-08-21T12:17:24;22.10;99.90
51908;DHT22;39320;53.214;6.556;2022-08-21T12:20:15;22.20;99.90
51908;DHT22;39320;53.214;6.556;2022-08-21T12:22:49;22.30;99.90
51908;DHT22;39320;53.214;6.556;2022-08-21T12:25:18;22.30;99.90
51908;DHT22;39320;53.214;6.556;2022-08-21T12:27:51;22.30;99.90
51908;DHT22;39320;53.214;6.556;2022-08-21T12:30:34;22.40;99.90
51908;DHT22;39320;53.214;6.556;2022-08-21T12:33:05;22.40;99.90
51908;DHT22;39320;53.214;6.556;2022-08-21T12:35:41;22.40;99.90
51908;DHT22;39320;53.214;6.556;2022-08-21T12:38:18;22.50;99.90
51908;DHT22;39320;53.214;6.556;2022-08-21T12:41:01;22.50;99.90
51908;DHT22;39320;53.214;6.556;2022-08-21T12:43:41;22.50;99.90
51908;DHT22;39320;53.214;6.556;2022-08-21T12:46:20;22.40;99.90
51908;DHT22;39320;53.214;6.556;2022-08-21T12:48:58;22.40;99.90
51908;DHT22;39320;53.214;6.556;2022-08-21T12:51:30;22.30;99.90
51908;DHT22;39320;53.214;6.556;2022-08-21T12:53:59;22.30;99.90
51908;DHT22;39320;53.214;6.556;2022-08-21T12:56:28;22.40;99.90
51908;DHT22;39320;53.214;6.556;2022-08-21T12:59:00;22.40;99.90
51908;DHT22;39320;53.214;6.556;2022-08-21T13:04:32;22.50;99.90
51908;DHT22;39320;53.214;6.556;2022-08-21T13:06:59;22.40;99.90
51908;DHT22;39320;53.214;6.556;2022-08-21T13:09:28;22.40;99.90
51908;DHT22;39320;53.214;6.556;2022-08-21T13:11:55;22.30;99.90
51908;DHT22;39320;53.214;6.556;2022-08-21T13:14:28;22.30;99.90
51908;DHT22;39320;53.214;6.556;2022-08-21T13:16:56;22.30;99.90
51908;DHT22;39320;53.214;6.556;2022-08-21T13:19:23;22.30;99.90
51908;DHT22;39320;53.214;6.556;2022-08-21T13:21:49;22.40;99.90
51908;DHT22;39320;53.214;6.556;2022-08-21T13:24:28;22.40;99.90
51908;DHT22;39320;53.214;6.556;2022-08-21T13:26:55;22.50;99.90
51908;DHT22;39320;53.214;6.556;2022-08-21T13:29:27;22.60;99.90
51908;DHT22;39320;53.214;6.556;2022-08-21T13:32:01;22.70;99.90
51908;DHT22;39320;53.214;6.556;2022-08-21T13:34:33;22.80;99.90
51908;DHT22;39320;53.214;6.556;2022-08-21T13:37:04;22.80;99.90
51908;DHT22;39320;53.214;6.556;2022-08-21T13:39:30;22.80;99.90
51908;DHT22;39320;53.214;6.556;2022-08-21T13:41:58;22.70;99.90
51908;DHT22;39320;53.214;6.556;2022-08-21T13:46:54;22.60;99.90
51908;DHT22;39320;53.214;6.556;2022-08-21T13:49:26;22.60;99.90
51908;DHT22;39320;53.214;6.556;2022-08-21T13:51:54;22.60;99.90
51908;DHT22;39320;53.214;6.556;2022-08-21T13:54:27;22.60;99.90
51908;DHT22;39320;53.214;6.556;2022-08-21T13:56:54;22.70;99.70
51908;DHT22;39320;53.214;6.556;2022-08-21T13:59:32;22.80;99.60
51908;DHT22;39320;53.214;6.556;2022-08-21T14:02:01;22.90;99.70
51908;DHT22;39320;53.214;6.556;2022-08-21T14:04:51;23.00;99.40
51908;DHT22;39320;53.214;6.556;2022-08-21T14:07:20;22.90;99.20
51908;DHT22;39320;53.214;6.556;2022-08-21T14:09:51;22.80;99.30
51908;DHT22;39320;53.214;6.556;2022-08-21T14:12:26;22.80;99.60
51908;DHT22;39320;53.214;6.556;2022-08-21T14:14:53;22.70;99.70
51908;DHT22;39320;53.214;6.556;2022-08-21T14:17:35;22.60;99.70
51908;DHT22;39320;53.214;6.556;2022-08-21T14:20:05;22.60;99.50
51908;DHT22;39320;53.214;6.556;2022-08-21T14:25:43;22.50;98.70
51908;DHT22;39320;53.214;6.556;2022-08-21T14:30:31;22.40;98.20
51908;DHT22;39320;53.214;6.556;2022-08-21T14:32:58;22.40;98.10
51908;DHT22;39320;53.214;6.556;2022-08-21T14:35:25;22.40;98.10
51908;DHT22;39320;53.214;6.556;2022-08-21T14:37:51;22.30;98.10
51908;DHT22;39320;53.214;6.556;2022-08-21T14:40:18;22.40;98.00
51908;DHT22;39320;53.214;6.556;2022-08-21T14:42:44;22.40;98.00
51908;DHT22;39320;53.214;6.556;2022-08-21T14:45:15;22.30;97.90
51908;DHT22;39320;53.214;6.556;2022-08-21T14:47:41;22.40;98.00
51908;DHT22;39320;53.214;6.556;2022-08-21T14:50:12;22.40;98.20
51908;DHT22;39320;53.214;6.556;2022-08-21T14:52:38;22.40;98.10
51908;DHT22;39320;53.214;6.556;2022-08-21T14:55:05;22.50;98.00
51908;DHT22;39320;53.214;6.556;2022-08-21T14:57:40;22.50;97.90
51908;DHT22;39320;53.214;6.556;2022-08-21T15:00:12;22.50;97.70
51908;DHT22;39320;53.214;6.556;2022-08-21T15:02:38;22.70;97.70
51908;DHT22;39320;53.214;6.556;2022-08-21T15:05:05;22.80;97.60
51908;DHT22;39320;53.214;6.556;2022-08-21T15:07:31;23.00;97.50
51908;DHT22;39320;53.214;6.556;2022-08-21T15:09:56;23.10;97.20
51908;DHT22;39320;53.214;6.556;2022-08-21T15:12:23;23.30;96.90
51908;DHT22;39320;53.214;6.556;2022-08-21T15:14:50;23.30;96.30
51908;DHT22;39320;53.214;6.556;2022-08-21T15:17:16;23.50;96.10
51908;DHT22;39320;53.214;6.556;2022-08-21T15:19:42;23.40;95.70
51908;DHT22;39320;53.214;6.556;2022-08-21T15:22:08;23.50;95.40
51908;DHT22;39320;53.214;6.556;2022-08-21T15:24:34;23.50;95.10
51908;DHT22;39320;53.214;6.556;2022-08-21T15:27:02;23.60;95.20
51908;DHT22;39320;53.214;6.556;2022-08-21T15:29:30;23.60;95.00
51908;DHT22;39320;53.214;6.556;2022-08-21T15:31:59;23.50;95.00
51908;DHT22;39320;53.214;6.556;2022-08-21T15:34:29;23.40;94.90
51908;DHT22;39320;53.214;6.556;2022-08-21T15:36:57;23.40;95.40
51908;DHT22;39320;53.214;6.556;2022-08-21T15:39:27;23.30;95.40
51908;DHT22;39320;53.214;6.556;2022-08-21T15:41:52;23.30;95.40
51908;DHT22;39320;53.214;6.556;2022-08-21T15:44:26;23.20;95.50
51908;DHT22;39320;53.214;6.556;2022-08-21T15:46:52;23.10;95.70
51908;DHT22;39320;53.214;6.556;2022-08-21T15:49:18;23.00;96.00
51908;DHT22;39320;53.214;6.556;2022-08-21T15:51:44;22.90;96.40
51908;DHT22;39320;53.214;6.556;2022-08-21T15:54:10;22.90;96.80
51908;DHT22;39320;53.214;6.556;2022-08-21T15:56:38;22.90;97.10
51908;DHT22;39320;53.214;6.556;2022-08-21T15:59:07;22.90;97.30
51908;DHT22;39320;53.214;6.556;2022-08-21T16:01:34;23.00;97.50
51908;DHT22;39320;53.214;6.556;2022-08-21T16:04:02;23.00;97.60
51908;DHT22;39320;53.214;6.556;2022-08-21T16:06:28;23.00;97.70
51908;DHT22;39320;53.214;6.556;2022-08-21T16:08:54;23.00;97.60
51908;DHT22;39320;53.214;6.556;2022-08-21T16:11:20;22.90;97.60
51908;DHT22;39320;53.214;6.556;2022-08-21T16:13:46;22.90;97.60
51908;DHT22;39320;53.214;6.556;2022-08-21T16:16:17;22.80;97.60
51908;DHT22;39320;53.214;6.556;2022-08-21T16:18:44;22.80;97.80
51908;DHT22;39320;53.214;6.556;2022-08-21T16:21:10;22.80;97.80
51908;DHT22;39320;53.214;6.556;2022-08-21T16:23:36;22.70;97.90
51908;DHT22;39320;53.214;6.556;2022-08-21T16:26:04;22.70;98.00
51908;DHT22;39320;53.214;6.556;2022-08-21T16:28:32;22.60;98.10
51908;DHT22;39320;53.214;6.556;2022-08-21T16:30:59;22.60;98.10
51908;DHT22;39320;53.214;6.556;2022-08-21T16:33:57;22.60;98.20
51908;DHT22;39320;53.214;6.556;2022-08-21T16:36:24;22.50;98.00
51908;DHT22;39320;53.214;6.556;2022-08-21T16:38:54;22.50;98.20
51908;DHT22;39320;53.214;6.556;2022-08-21T16:41:22;22.40;98.10
51908;DHT22;39320;53.214;6.556;2022-08-21T16:43:51;22.40;98.10
51908;DHT22;39320;53.214;6.556;2022-08-21T16:46:18;22.30;98.10
51908;DHT22;39320;53.214;6.556;2022-08-21T16:48:45;22.30;98.10
51908;DHT22;39320;53.214;6.556;2022-08-21T16:51:12;22.30;98.10
51908;DHT22;39320;53.214;6.556;2022-08-21T16:53:38;22.30;98.10
51908;DHT22;39320;53.214;6.556;2022-08-21T16:56:04;22.30;98.00
51908;DHT22;39320;53.214;6.556;2022-08-21T16:58:36;22.30;98.00
51908;DHT22;39320;53.214;6.556;2022-08-21T17:01:06;22.30;97.90